Time;durP1;ratioP1;P1;durP2;ratioP2;P2;SDS_P1;SDS_P2;PMS_P1;PMS_P2;Temp;Humidity;BMP_temperature;BMP_pressure;BME280_temperature;BME280_humidity;BME280_pressure;Samples;Min_cycle;Max_cycle;Signal;HPM_P1;HPM_P2
2022/08/23 00:02:34;;;;;;;4.80;0.65;;;21.10;84.10;;;;;;10279052;28;20557;-60
2022/08/23 00:07:38;;;;;;;0.70;0.47;;;21.00;84.80;;;;;;10285369;28;20658;-60
2022/08/23 00:12:42;;;;;;;0.98;0.50;;;20.90;86.10;;;;;;10268577;28;20048;-61
2022/08/23 00:17:43;;;;;;;1.73;0.57;;;20.80;87.00;;;;;;10250774;28;20043;-61
2022/08/23 00:22:46;;;;;;;1.15;0.63;;;20.60;87.20;;;;;;10251653;28;20701;-60
2022/08/23 00:27:48;;;;;;;2.75;0.45;;;20.50;87.70;;;;;;10248309;28;20548;-60
2022/08/23 00:32:50;;;;;;;2.60;0.50;;;20.40;88.40;;;;;;10247865;28;20058;-60
2022/08/23 00:37:57;;;;;;;4.47;0.60;;;20.30;88.40;;;;;;10248252;28;20047;-60
2022/08/23 00:48:48;;;;;;;1.15;0.50;;;20.00;89.40;;;;;;10250817;28;20051;-60
2022/08/23 00:53:54;;;;;;;2.53;0.50;;;19.90;90.10;;;;;;10252692;28;20047;-61
2022/08/23 00:58:56;;;;;;;2.40;0.40;;;19.80;90.30;;;;;;10246565;28;20061;-61
2022/08/23 01:03:59;;;;;;;0.90;0.50;;;19.60;90.60;;;;;;10249786;28;20113;-62
2022/08/23 01:09:11;;;;;;;1.90;0.30;;;19.60;90.90;;;;;;10249317;28;20141;-61
2022/08/23 01:14:57;;;;;;;1.88;0.50;;;19.60;91.30;;;;;;10243721;28;20054;-60
2022/08/23 01:20:05;;;;;;;2.15;0.60;;;19.40;91.50;;;;;;10247529;28;20055;-60
2022/08/23 01:25:12;;;;;;;4.78;0.40;;;19.30;91.90;;;;;;10246721;28;20089;-60
2022/08/23 01:30:19;;;;;;;1.88;0.55;;;19.20;92.00;;;;;;10249363;28;20110;-60
2022/08/23 01:35:29;;;;;;;0.70;0.40;;;19.10;92.50;;;;;;10252780;28;20055;-59
2022/08/23 01:40:32;;;;;;;1.63;0.47;;;19.10;92.90;;;;;;10242669;28;20050;-60
2022/08/23 01:45:34;;;;;;;1.55;0.57;;;19.00;93.00;;;;;;10248739;28;20541;-59
2022/08/23 01:50:36;;;;;;;0.85;0.45;;;18.80;93.60;;;;;;10245918;28;20082;-59
2022/08/23 01:55:43;;;;;;;1.17;0.50;;;18.70;93.90;;;;;;10243974;28;20047;-60
2022/08/23 02:00:45;;;;;;;1.70;0.60;;;18.60;94.30;;;;;;10248713;28;20083;-60
2022/08/23 02:05:47;;;;;;;4.32;0.85;;;18.50;94.70;;;;;;10251864;28;20069;-60
2022/08/23 02:10:49;;;;;;;4.85;0.65;;;18.40;95.10;;;;;;10253138;28;20055;-59
2022/08/23 02:15:51;;;;;;;1.33;0.52;;;18.30;95.30;;;;;;10255336;28;20703;-60
2022/08/23 02:20:53;;;;;;;2.72;0.50;;;18.30;95.70;;;;;;10257743;28;20486;-60
2022/08/23 02:25:55;;;;;;;1.13;0.50;;;18.20;96.30;;;;;;10248651;28;20425;-60
2022/08/23 02:30:57;;;;;;;0.73;0.50;;;18.10;96.50;;;;;;10251668;28;20105;-59
2022/08/23 02:35:58;;;;;;;2.42;0.50;;;18.00;96.90;;;;;;10252412;28;20043;-60
2022/08/23 02:41:00;;;;;;;2.72;0.50;;;17.90;97.50;;;;;;10254303;28;20047;-60
2022/08/23 02:46:05;;;;;;;4.43;0.47;;;17.80;98.00;;;;;;10250018;28;20047;-60
2022/08/23 02:51:07;;;;;;;3.17;0.60;;;17.80;98.60;;;;;;10256965;28;20085;-59
2022/08/23 02:56:11;;;;;;;1.70;0.50;;;17.60;99.20;;;;;;10257579;28;20503;-59
2022/08/23 03:01:27;;;;;;;2.60;0.50;;;17.50;99.70;;;;;;10259116;28;20117;-60
2022/08/23 03:06:29;;;;;;;4.15;0.65;;;17.50;99.90;;;;;;10255736;28;20105;-59
2022/08/23 03:11:31;;;;;;;1.33;0.57;;;17.40;99.90;;;;;;10232355;28;20522;-60
2022/08/23 03:16:33;;;;;;;2.13;0.68;;;17.50;99.90;;;;;;10240793;28;20059;-60
2022/08/23 03:21:35;;;;;;;2.40;0.50;;;17.30;99.90;;;;;;10257353;28;20058;-59
2022/08/23 03:26:37;;;;;;;4.80;0.77;;;17.30;99.90;;;;;;10251381;28;20059;-60
2022/08/23 03:31:38;;;;;;;1.48;0.68;;;17.30;99.90;;;;;;10236941;28;20051;-60
2022/08/23 03:36:40;;;;;;;3.28;0.60;;;17.30;99.90;;;;;;10246724;28;20055;-59
2022/08/23 03:41:42;;;;;;;3.53;0.68;;;17.20;99.90;;;;;;10249218;28;20050;-59
2022/08/23 03:46:43;;;;;;;4.47;0.70;;;17.10;99.90;;;;;;10256326;28;20047;-60
2022/08/23 03:51:45;;;;;;;1.05;0.60;;;17.10;99.90;;;;;;10243710;28;20055;-61
2022/08/23 03:56:59;;;;;;;2.25;0.40;;;17.00;99.90;;;;;;10248834;28;20051;-61
2022/08/23 04:02:01;;;;;;;1.60;0.60;;;17.00;99.90;;;;;;10260536;28;20105;-61
2022/08/23 04:07:03;;;;;;;6.00;0.80;;;17.00;99.90;;;;;;10246077;28;20070;-61
2022/08/23 04:12:07;;;;;;;0.82;0.50;;;16.90;99.90;;;;;;10251688;28;20055;-61
2022/08/23 04:17:19;;;;;;;4.43;0.60;;;16.90;99.90;;;;;;10253877;28;20043;-61
2022/08/23 04:22:21;;;;;;;4.20;0.70;;;16.80;99.90;;;;;;10252167;28;20079;-61
2022/08/23 04:27:23;;;;;;;2.63;0.57;;;16.80;99.90;;;;;;10240592;28;20055;-64
2022/08/23 04:32:24;;;;;;;1.13;0.65;;;16.80;99.90;;;;;;10255157;28;20538;-63
2022/08/23 04:37:29;;;;;;;2.45;0.80;;;16.80;99.90;;;;;;10250717;28;20047;-63
2022/08/23 04:42:30;;;;;;;2.95;0.55;;;16.80;99.90;;;;;;10248860;28;20051;-63
2022/08/23 04:47:33;;;;;;;1.67;0.60;;;16.80;99.90;;;;;;10250289;28;20054;-64
2022/08/23 04:52:35;;;;;;;3.53;1.00;;;16.80;99.90;;;;;;10243915;28;20050;-64
2022/08/23 04:57:37;;;;;;;0.90;0.68;;;16.80;99.90;;;;;;10234832;28;20055;-63
2022/08/23 05:02:39;;;;;;;5.22;0.60;;;16.80;99.90;;;;;;10249361;28;20520;-63
2022/08/23 05:07:40;;;;;;;5.65;0.50;;;16.80;99.90;;;;;;10246826;28;20104;-63
2022/08/23 05:12:44;;;;;;;5.40;0.85;;;16.90;99.90;;;;;;10249400;28;20043;-63
2022/08/23 05:17:46;;;;;;;0.70;0.65;;;16.90;99.90;;;;;;10247191;28;20057;-63
2022/08/23 05:22:48;;;;;;;3.92;1.27;;;16.90;99.90;;;;;;10223091;28;20050;-63
2022/08/23 05:27:50;;;;;;;2.13;0.73;;;16.90;99.90;;;;;;10247718;28;20058;-63
2022/08/23 05:32:52;;;;;;;2.97;0.70;;;17.00;99.90;;;;;;10257110;28;20059;-64
2022/08/23 05:37:53;;;;;;;2.80;0.80;;;17.10;99.90;;;;;;10236697;28;20055;-63
2022/08/23 05:42:55;;;;;;;1.75;0.88;;;17.10;99.90;;;;;;10246938;28;20224;-64
2022/08/23 05:47:57;;;;;;;2.38;0.80;;;17.10;99.90;;;;;;10243334;28;20051;-65
2022/08/23 05:52:59;;;;;;;4.38;1.10;;;17.30;99.90;;;;;;10249232;28;20049;-65
2022/08/23 05:58:01;;;;;;;4.43;1.27;;;17.40;99.90;;;;;;10252232;28;20046;-65
2022/08/23 06:03:03;;;;;;;3.30;0.75;;;17.60;99.90;;;;;;10228129;28;20055;-64
2022/08/23 06:08:05;;;;;;;5.05;1.20;;;17.70;99.90;;;;;;10259615;28;20055;-64
2022/08/23 06:13:06;;;;;;;3.80;0.98;;;17.90;99.90;;;;;;10271924;28;20073;-64
2022/08/23 06:18:08;;;;;;;3.05;0.80;;;18.00;99.90;;;;;;10285391;28;20055;-65
2022/08/23 06:23:10;;;;;;;1.58;0.90;;;18.20;99.90;;;;;;10292332;28;20077;-65
2022/08/23 06:28:12;;;;;;;9.68;0.80;;;18.50;99.90;;;;;;10271855;28;20437;-64
2022/08/23 06:33:16;;;;;;;6.82;1.05;;;18.60;99.90;;;;;;10288970;28;20047;-65
2022/08/23 06:38:18;;;;;;;2.13;0.80;;;18.90;99.90;;;;;;10292740;28;20634;-65
2022/08/23 06:43:19;;;;;;;3.10;0.70;;;19.10;99.90;;;;;;10290320;28;20105;-65
2022/08/23 06:48:21;;;;;;;2.08;0.90;;;19.20;99.90;;;;;;10285851;28;20886;-64
2022/08/23 06:53:23;;;;;;;4.95;0.60;;;19.30;99.90;;;;;;10290993;28;20500;-64
2022/08/23 06:58:25;;;;;;;0.95;0.70;;;19.40;99.90;;;;;;10296137;28;20520;-65
2022/08/23 07:03:26;;;;;;;2.55;0.60;;;19.60;99.90;;;;;;10291841;28;20168;-64
2022/08/23 07:08:28;;;;;;;4.93;0.82;;;19.80;99.90;;;;;;10295426;28;20105;-65
2022/08/23 07:13:30;;;;;;;3.30;0.80;;;20.00;99.90;;;;;;10278346;28;20397;-65
2022/08/23 07:18:32;;;;;;;3.83;0.55;;;20.20;99.90;;;;;;10297723;28;20105;-65
2022/08/23 07:23:34;;;;;;;1.35;0.60;;;20.30;99.90;;;;;;10303389;28;20038;-65
2022/08/23 07:28:37;;;;;;;4.53;0.57;;;20.50;99.90;;;;;;10292803;28;20054;-66
2022/08/23 07:33:40;;;;;;;1.35;0.55;;;20.70;99.90;;;;;;10290867;28;20046;-66
2022/08/23 07:38:43;;;;;;;1.50;0.60;;;21.00;99.90;;;;;;10297568;28;20046;-66
2022/08/23 07:43:46;;;;;;;2.42;0.57;;;21.20;99.90;;;;;;10294875;28;20042;-66
2022/08/23 07:48:48;;;;;;;3.83;0.52;;;21.40;99.90;;;;;;10287753;28;20054;-66
2022/08/23 07:53:59;;;;;;;4.53;0.70;;;21.60;99.90;;;;;;10295858;28;20490;-65
2022/08/23 07:59:01;;;;;;;3.63;0.60;;;21.70;99.90;;;;;;10295342;28;20050;-65
2022/08/23 08:04:05;;;;;;;3.35;0.70;;;21.90;99.90;;;;;;10298170;28;20046;-64
2022/08/23 08:09:08;;;;;;;0.77;0.45;;;22.00;99.30;;;;;;10291638;28;21064;-63
2022/08/23 08:14:10;;;;;;;4.90;0.65;;;22.10;99.60;;;;;;10249673;28;20043;-64
2022/08/23 08:19:15;;;;;;;1.63;0.50;;;22.20;99.40;;;;;;10239869;28;20062;-64
2022/08/23 08:24:19;;;;;;;2.50;0.50;;;22.20;99.60;;;;;;10255741;28;20082;-64
2022/08/23 08:29:21;;;;;;;4.22;0.70;;;22.30;99.40;;;;;;10256660;28;20047;-64
2022/08/23 08:34:23;;;;;;;4.25;0.80;;;22.40;98.80;;;;;;10255234;28;20051;-64
2022/08/23 08:39:28;;;;;;;3.72;0.50;;;22.50;98.10;;;;;;10254217;28;20062;-65
2022/08/23 08:44:54;;;;;;;0.90;0.73;;;22.70;98.30;;;;;;10245571;28;20050;-64
2022/08/23 08:49:59;;;;;;;5.85;0.82;;;22.90;97.10;;;;;;10246853;28;20068;-64
2022/08/23 08:55:06;;;;;;;4.50;0.75;;;23.10;97.30;;;;;;10247582;28;20450;-64
2022/08/23 09:00:16;;;;;;;1.73;0.50;;;23.30;96.80;;;;;;10248242;28;20050;-65
2022/08/23 09:05:25;;;;;;;4.57;0.70;;;23.50;96.10;;;;;;10248791;28;20074;-65
2022/08/23 09:10:48;;;;;;;4.93;0.60;;;23.70;96.80;;;;;;10259130;28;20054;-65
2022/08/23 09:16:37;;;;;;;4.40;0.50;;;23.90;95.20;;;;;;10254115;28;20406;-64
2022/08/23 09:22:05;;;;;;;5.60;0.70;;;24.10;94.20;;;;;;10230843;28;20055;-64
2022/08/23 09:27:10;;;;;;;4.88;0.60;;;24.30;95.30;;;;;;10250244;28;20073;-64
2022/08/23 09:32:28;;;;;;;5.43;0.70;;;24.60;94.30;;;;;;10251625;28;20050;-64
2022/08/23 09:37:43;;;;;;;1.27;0.70;;;24.80;93.10;;;;;;10248993;28;20051;-64
2022/08/23 09:42:46;;;;;;;3.63;0.75;;;25.00;91.80;;;;;;10245950;28;20043;-64
2022/08/23 09:47:48;;;;;;;8.25;0.80;;;25.20;91.30;;;;;;10246062;28;20051;-63
2022/08/23 09:53:05;;;;;;;3.10;0.60;;;25.30;91.00;;;;;;10252754;28;20058;-64
2022/08/23 09:58:24;;;;;;;1.30;0.60;;;25.60;90.70;;;;;;10245973;28;20461;-64
2022/08/23 10:03:28;;;;;;;2.58;0.50;;;25.70;90.30;;;;;;10244506;28;20047;-64
2022/08/23 10:08:33;;;;;;;3.42;0.50;;;26.10;90.90;;;;;;10244880;28;20073;-62
2022/08/23 10:13:36;;;;;;;1.17;0.67;;;26.40;90.70;;;;;;10251046;28;20521;-64
2022/08/23 10:19:02;;;;;;;0.88;0.63;;;26.70;89.00;;;;;;10240627;28;20050;-65
2022/08/23 10:24:16;;;;;;;;;;;27.00;87.60;;;;;;10249096;28;20066;-65
2022/08/23 10:29:37;;;;;;;3.47;0.60;;;27.50;86.00;;;;;;10245662;28;19981;-66
2022/08/23 10:34:49;;;;;;;2.83;0.60;;;28.30;83.70;;;;;;10256053;28;20054;-65
2022/08/23 10:39:51;;;;;;;1.95;0.70;;;28.90;86.70;;;;;;10252559;28;20047;-66
2022/08/23 10:44:58;;;;;;;1.00;0.60;;;29.10;79.20;;;;;;10255523;28;20101;-66
2022/08/23 10:50:07;;;;;;;1.15;0.60;;;29.60;81.20;;;;;;10257328;28;20047;-65
2022/08/23 10:55:33;;;;;;;4.00;0.95;;;29.60;77.90;;;;;;10261507;28;20066;-63
2022/08/23 11:00:36;;;;;;;2.78;0.70;;;29.10;77.20;;;;;;10236278;28;20052;-64
2022/08/23 11:05:39;;;;;;;0.90;0.60;;;29.20;78.30;;;;;;10251251;28;20502;-65
2022/08/23 11:10:46;;;;;;;1.20;0.52;;;29.20;77.30;;;;;;10252287;28;20043;-65
2022/08/23 11:16:00;;;;;;;1.45;0.60;;;29.20;78.40;;;;;;10249780;28;20054;-64
2022/08/23 11:21:04;;;;;;;1.10;0.73;;;29.50;77.00;;;;;;10255831;28;20045;-64
2022/08/23 11:26:10;;;;;;;3.60;0.60;;;29.70;74.80;;;;;;10255895;28;20413;-65
2022/08/23 11:31:43;;;;;;;1.80;0.57;;;29.90;74.90;;;;;;10253546;28;20047;-66
2022/08/23 11:37:19;;;;;;;2.97;0.55;;;30.10;75.50;;;;;;10255898;28;20510;-65
2022/08/23 11:42:20;;;;;;;2.28;0.63;;;30.30;74.00;;;;;;10250617;28;20051;-67
2022/08/23 11:47:37;;;;;;;1.10;0.60;;;30.70;74.50;;;;;;10255864;28;20110;-66
2022/08/23 11:53:07;;;;;;;4.43;0.55;;;30.90;71.00;;;;;;10248467;28;20051;-65
2022/08/23 11:58:43;;;;;;;1.98;0.70;;;30.70;69.90;;;;;;10233742;28;20052;-65
2022/08/23 12:03:58;;;;;;;;;;;30.50;69.40;;;;;;10256590;28;20047;-65
2022/08/23 12:09:10;;;;;;;3.80;0.85;;;31.30;68.50;;;;;;10238116;28;19930;-66
2022/08/23 12:14:31;;;;;;;3.67;0.77;;;31.20;69.00;;;;;;10250071;28;20478;-65
2022/08/23 12:19:39;;;;;;;1.42;0.60;;;31.50;66.90;;;;;;10256130;28;20047;-66
2022/08/23 12:24:46;;;;;;;5.97;0.70;;;31.70;69.30;;;;;;10244923;28;20047;-70
2022/08/23 12:30:12;;;;;;;2.30;0.70;;;31.30;65.90;;;;;;10252368;28;20049;-66
2022/08/23 12:35:45;;;;;;;2.30;0.65;;;31.70;64.70;;;;;;10250453;28;20074;-65
2022/08/23 12:40:51;;;;;;;0.70;0.65;;;32.00;65.40;;;;;;10245358;28;20047;-65
2022/08/23 12:46:00;;;;;;;2.55;0.50;;;32.20;64.70;;;;;;10254940;28;20051;-65
2022/08/23 12:51:09;;;;;;;1.23;0.60;;;32.00;61.50;;;;;;10254041;28;20047;-65
2022/08/23 12:56:27;;;;;;;1.55;0.60;;;32.40;61.60;;;;;;10248411;28;20047;-65
2022/08/23 13:01:36;;;;;;;1.70;0.55;;;32.20;61.80;;;;;;10248052;28;20061;-63
2022/08/23 13:06:43;;;;;;;2.13;0.50;;;32.20;60.10;;;;;;10245778;28;20146;-63
2022/08/23 13:11:46;;;;;;;4.38;0.70;;;33.20;60.20;;;;;;10266387;28;20058;-63
2022/08/23 13:16:50;;;;;;;1.58;0.70;;;33.80;58.60;;;;;;10253064;28;20055;-64
2022/08/23 13:22:17;;;;;;;2.60;0.50;;;33.90;58.40;;;;;;10245889;28;20047;-64
2022/08/23 13:27:26;;;;;;;3.53;0.82;;;34.20;57.70;;;;;;10253998;28;20047;-63
2022/08/23 13:32:45;;;;;;;2.30;0.63;;;33.90;56.70;;;;;;10247216;28;20078;-63
2022/08/23 13:37:50;;;;;;;1.50;0.60;;;34.60;55.50;;;;;;10254099;28;20413;-63
2022/08/23 13:43:06;;;;;;;2.03;0.50;;;34.90;54.60;;;;;;10244322;28;20047;-64
2022/08/23 13:48:15;;;;;;;3.15;0.50;;;34.40;53.80;;;;;;10252602;28;20321;-63
2022/08/23 13:53:17;;;;;;;1.20;0.50;;;34.50;54.90;;;;;;10246975;28;20510;-64
2022/08/23 13:58:28;;;;;;;0.98;0.45;;;34.40;53.40;;;;;;10246724;28;20056;-64
2022/08/23 14:03:30;;;;;;;0.60;0.40;;;34.50;55.10;;;;;;10254892;28;20737;-62
2022/08/23 14:08:32;;;;;;;1.92;0.60;;;34.90;53.90;;;;;;10254833;28;20043;-64
2022/08/23 14:13:35;;;;;;;2.13;0.50;;;35.50;50.90;;;;;;10260114;28;20051;-63
2022/08/23 14:18:37;;;;;;;1.23;0.70;;;35.60;52.10;;;;;;10254116;28;20532;-62
2022/08/23 14:23:58;;;;;;;2.10;0.57;;;35.30;52.70;;;;;;10246446;28;20194;-63
2022/08/23 14:29:00;;;;;;;2.08;0.50;;;35.10;52.80;;;;;;10253460;28;20972;-62
2022/08/23 14:34:02;;;;;;;3.50;0.50;;;35.30;52.60;;;;;;10250998;28;20094;-64
2022/08/23 14:39:04;;;;;;;1.55;0.77;;;35.40;52.30;;;;;;10261131;28;20055;-64
2022/08/23 14:44:06;;;;;;;2.08;0.50;;;34.60;52.30;;;;;;10249502;28;20051;-64
2022/08/23 14:49:09;;;;;;;2.78;0.63;;;34.30;52.90;;;;;;10260989;28;20109;-64
2022/08/23 14:54:17;;;;;;;3.63;0.60;;;34.80;54.00;;;;;;10253909;28;20082;-63
2022/08/23 14:59:19;;;;;;;5.78;0.52;;;34.40;52.80;;;;;;10253049;28;20113;-62
2022/08/23 15:04:23;;;;;;;1.98;0.70;;;34.40;52.50;;;;;;10254514;28;20051;-64
2022/08/23 15:09:28;;;;;;;1.15;0.50;;;33.60;53.70;;;;;;10260800;28;21031;-64
2022/08/23 15:14:29;;;;;;;2.55;0.50;;;33.50;53.60;;;;;;10250469;28;21141;-63
2022/08/23 15:19:31;;;;;;;2.15;0.70;;;33.10;53.70;;;;;;10229442;28;20047;-63
2022/08/23 15:24:33;;;;;;;2.63;0.50;;;33.30;54.60;;;;;;10254332;28;20641;-63
2022/08/23 15:29:34;;;;;;;1.25;0.60;;;33.30;53.40;;;;;;10255560;28;20110;-63
2022/08/23 15:34:36;;;;;;;1.33;0.50;;;33.50;53.50;;;;;;10254513;28;20978;-64
2022/08/23 15:39:41;;;;;;;2.08;0.50;;;33.40;54.00;;;;;;10254889;28;20074;-63
2022/08/23 15:44:43;;;;;;;1.55;0.55;;;33.40;55.10;;;;;;10254103;28;20047;-64
2022/08/23 15:49:44;;;;;;;2.00;0.40;;;33.40;53.40;;;;;;10263258;28;20043;-64
2022/08/23 15:54:46;;;;;;;2.92;0.60;;;33.30;53.70;;;;;;10243944;28;20958;-64
2022/08/23 15:59:48;;;;;;;1.10;0.80;;;33.10;53.20;;;;;;10261253;28;20047;-64
2022/08/23 16:04:50;;;;;;;6.78;0.50;;;33.30;53.80;;;;;;10255317;28;20051;-64
2022/08/23 16:09:52;;;;;;;1.63;0.73;;;33.20;52.60;;;;;;10246395;28;20042;-63
2022/08/23 16:14:54;;;;;;;1.77;0.60;;;33.10;53.30;;;;;;10296233;28;20043;-63
2022/08/23 16:19:55;;;;;;;2.72;0.80;;;33.00;53.00;;;;;;10276491;28;20051;-63
2022/08/23 16:24:59;;;;;;;1.85;0.70;;;32.90;52.80;;;;;;10293106;28;20058;-65
2022/08/23 16:30:01;;;;;;;3.25;0.70;;;32.50;54.60;;;;;;10299147;28;20047;-65
2022/08/23 16:35:04;;;;;;;0.70;0.70;;;32.20;57.50;;;;;;10298011;28;20050;-65
2022/08/23 16:40:07;;;;;;;2.47;0.70;;;31.90;55.90;;;;;;10296011;28;20105;-68
2022/08/23 16:45:10;;;;;;;1.80;0.73;;;31.70;54.90;;;;;;10292705;28;20569;-66
2022/08/23 16:50:13;;;;;;;3.55;0.85;;;31.50;56.10;;;;;;10299990;28;20042;-63
2022/08/23 16:55:15;;;;;;;1.23;0.75;;;31.20;54.70;;;;;;10295683;28;20046;-60
2022/08/23 17:00:17;;;;;;;2.65;0.70;;;31.20;54.20;;;;;;10295656;28;20038;-62
2022/08/23 17:05:19;;;;;;;2.17;0.70;;;31.10;53.70;;;;;;10292880;28;20038;-65
2022/08/23 17:10:21;;;;;;;3.15;0.93;;;31.20;53.90;;;;;;10270272;28;20478;-64
2022/08/23 17:15:30;;;;;;;1.80;0.80;;;31.20;53.30;;;;;;10259968;28;20474;-63
2022/08/23 17:20:34;;;;;;;2.80;0.70;;;31.10;53.90;;;;;;10259171;28;20371;-64
2022/08/23 17:25:37;;;;;;;1.07;0.60;;;31.20;53.40;;;;;;10265477;28;20047;-64
2022/08/23 17:30:39;;;;;;;1.95;0.60;;;31.10;53.90;;;;;;10266932;28;20042;-65
2022/08/23 17:35:41;;;;;;;1.77;0.50;;;30.80;53.80;;;;;;10263569;28;20114;-65
2022/08/23 17:40:44;;;;;;;2.28;0.93;;;30.60;54.20;;;;;;10251504;28;20051;-64
2022/08/23 17:45:49;;;;;;;2.97;0.60;;;30.40;54.90;;;;;;10250743;28;20051;-65
2022/08/23 17:50:50;;;;;;;0.80;0.40;;;30.20;55.30;;;;;;10228485;28;20055;-66
2022/08/23 17:55:52;;;;;;;1.10;0.50;;;30.10;55.00;;;;;;10251623;28;20640;-64
2022/08/23 18:00:54;;;;;;;1.95;0.82;;;29.90;55.60;;;;;;10251024;28;20059;-64
2022/08/23 18:05:57;;;;;;;2.45;0.60;;;29.70;56.60;;;;;;10247336;28;20135;-64
2022/08/23 18:10:59;;;;;;;1.45;0.50;;;29.50;58.60;;;;;;10253338;28;20062;-66
2022/08/23 18:16:00;;;;;;;7.03;1.08;;;29.20;58.30;;;;;;10288237;28;20112;-65
2022/08/23 18:21:05;;;;;;;2.13;0.70;;;28.90;59.70;;;;;;10285429;28;20047;-64
2022/08/23 18:31:34;;;;;;;8.27;0.75;;;28.50;63.00;;;;;;10244385;28;20051;-62
2022/08/23 18:36:36;;;;;;;11.88;1.65;;;28.20;64.40;;;;;;10289321;28;20674;-63
2022/08/23 18:41:40;;;;;;;3.90;1.00;;;27.90;65.40;;;;;;10297988;28;20050;-62
2022/08/23 18:46:42;;;;;;;5.68;0.70;;;27.50;65.40;;;;;;10295322;28;20101;-62
2022/08/23 18:51:44;;;;;;;6.68;1.10;;;27.30;66.10;;;;;;10293182;28;20086;-64
2022/08/23 18:56:46;;;;;;;5.25;1.20;;;27.00;68.30;;;;;;10301544;28;20046;-64
2022/08/23 19:01:48;;;;;;;7.28;1.77;;;26.80;67.90;;;;;;10298462;28;20054;-63
2022/08/23 19:06:50;;;;;;;6.80;1.63;;;26.50;68.80;;;;;;10303493;28;20054;-63
2022/08/23 19:11:55;;;;;;;5.70;1.10;;;26.30;68.80;;;;;;10302651;28;20050;-63
2022/08/23 19:17:00;;;;;;;3.28;1.35;;;26.00;68.70;;;;;;10301365;28;20050;-62
2022/08/23 19:22:03;;;;;;;5.30;1.40;;;25.80;70.70;;;;;;10309226;28;20069;-64
2022/08/23 19:27:05;;;;;;;10.18;1.77;;;25.60;70.40;;;;;;10304455;28;20050;-64
2022/08/23 19:32:08;;;;;;;6.93;1.50;;;25.40;71.80;;;;;;10296479;28;20182;-64
2022/08/23 19:37:10;;;;;;;6.32;1.40;;;25.30;72.70;;;;;;10292152;28;20050;-63
2022/08/23 19:42:25;;;;;;;10.63;1.50;;;25.00;72.60;;;;;;10298850;28;20054;-62
2022/08/23 19:47:27;;;;;;;3.60;1.10;;;24.90;74.00;;;;;;10300419;28;20050;-64
2022/08/23 19:52:29;;;;;;;7.30;1.50;;;24.80;74.90;;;;;;10299303;28;20558;-64
2022/08/23 19:57:32;;;;;;;6.60;1.23;;;24.60;76.50;;;;;;10298433;28;20046;-64
2022/08/23 20:02:33;;;;;;;3.03;0.90;;;24.50;75.60;;;;;;10301922;28;20046;-64
2022/08/23 20:07:36;;;;;;;2.40;1.13;;;24.30;75.90;;;;;;10300094;28;20658;-64
2022/08/23 20:12:40;;;;;;;7.03;1.10;;;24.10;75.90;;;;;;10279789;28;20497;-62
2022/08/23 20:17:43;;;;;;;3.90;0.85;;;23.90;76.00;;;;;;10297488;28;20497;-64
2022/08/23 20:28:07;;;;;;;2.15;0.80;;;23.60;76.30;;;;;;10299205;28;20050;-64
2022/08/23 20:33:08;;;;;;;3.17;0.88;;;23.50;77.20;;;;;;10290376;28;20408;-63
2022/08/23 20:38:11;;;;;;;2.85;1.10;;;23.40;77.50;;;;;;10294993;28;20050;-63
2022/08/23 20:43:35;;;;;;;9.80;0.82;;;23.30;78.00;;;;;;10296865;28;20494;-62
2022/08/23 20:48:37;;;;;;;6.82;1.00;;;23.20;78.90;;;;;;10294704;28;20498;-63
2022/08/23 20:53:38;;;;;;;7.35;1.02;;;23.10;79.10;;;;;;10296686;28;20052;-61
2022/08/23 20:58:41;;;;;;;2.90;1.05;;;23.00;78.90;;;;;;10294904;28;20105;-62
2022/08/23 21:03:44;;;;;;;2.00;1.25;;;22.80;80.10;;;;;;10300308;28;20042;-62
2022/08/23 21:08:48;;;;;;;4.75;1.20;;;22.70;80.80;;;;;;10299857;28;20043;-62
2022/08/23 21:13:56;;;;;;;3.15;1.27;;;22.60;81.00;;;;;;10294475;28;20561;-62
2022/08/23 21:18:57;;;;;;;6.97;1.67;;;22.40;81.00;;;;;;10298489;28;20054;-62
2022/08/23 21:23:59;;;;;;;5.25;1.00;;;22.30;81.70;;;;;;10295252;28;20058;-63
2022/08/23 21:29:02;;;;;;;1.48;0.68;;;22.20;81.70;;;;;;10293302;28;20046;-62
2022/08/23 21:34:06;;;;;;;5.70;1.10;;;22.00;82.40;;;;;;10293164;28;20179;-63
2022/08/23 21:39:07;;;;;;;7.78;1.45;;;21.90;83.30;;;;;;10295573;28;20053;-62
2022/08/23 21:44:12;;;;;;;4.05;1.02;;;21.80;83.60;;;;;;10291917;28;20108;-62
2022/08/23 21:49:15;;;;;;;4.05;1.05;;;21.70;84.10;;;;;;10290709;28;20047;-62
2022/08/23 21:54:17;;;;;;;4.65;1.15;;;21.50;84.30;;;;;;10293520;28;20050;-62
2022/08/23 21:59:18;;;;;;;3.40;1.23;;;21.50;84.40;;;;;;10291530;28;20104;-62
2022/08/23 22:04:20;;;;;;;3.03;0.85;;;21.50;84.50;;;;;;10286114;28;20057;-63
2022/08/23 22:09:22;;;;;;;3.15;0.90;;;21.40;84.70;;;;;;10294987;28;20050;-62
2022/08/23 22:14:32;;;;;;;1.65;0.95;;;21.50;85.00;;;;;;10288225;28;20441;-62
2022/08/23 22:19:34;;;;;;;2.55;1.10;;;21.50;84.70;;;;;;10286602;28;20108;-63
2022/08/23 22:24:35;;;;;;;3.30;1.00;;;21.60;84.80;;;;;;10297417;28;20547;-63
2022/08/23 22:29:38;;;;;;;3.30;0.88;;;21.60;84.90;;;;;;10288764;28;20054;-63
2022/08/23 22:34:41;;;;;;;3.92;1.00;;;21.60;85.10;;;;;;10292551;28;20050;-63
2022/08/23 22:39:44;;;;;;;2.20;1.40;;;21.60;85.50;;;;;;10298770;28;20047;-61
2022/08/23 22:44:46;;;;;;;2.88;0.90;;;21.50;85.80;;;;;;10296014;28;20043;-62
2022/08/23 22:49:48;;;;;;;4.68;1.17;;;21.50;86.30;;;;;;10295398;28;20050;-62
2022/08/23 22:54:49;;;;;;;4.82;0.93;;;21.50;87.20;;;;;;10304820;28;20057;-63
2022/08/23 22:59:51;;;;;;;2.70;0.70;;;21.40;87.20;;;;;;10297275;28;20579;-62
2022/08/23 23:04:56;;;;;;;1.40;0.80;;;21.30;87.30;;;;;;10297033;28;20109;-63
2022/08/23 23:09:57;;;;;;;0.93;0.60;;;21.30;87.60;;;;;;10296958;28;20054;-62
2022/08/23 23:14:59;;;;;;;4.43;0.90;;;21.20;88.00;;;;;;10303877;28;20062;-66
2022/08/23 23:25:22;;;;;;;1.55;0.98;;;21.10;89.50;;;;;;10292481;28;20061;-68
2022/08/23 23:30:24;;;;;;;2.78;0.75;;;21.10;88.60;;;;;;10293250;28;20054;-68
2022/08/23 23:35:27;;;;;;;2.80;0.73;;;21.00;89.30;;;;;;10294921;28;20050;-67
2022/08/23 23:40:28;;;;;;;2.15;0.60;;;21.00;89.70;;;;;;10296808;28;20117;-67
2022/08/23 23:45:30;;;;;;;5.47;0.82;;;21.00;90.00;;;;;;10295635;28;20085;-66
2022/08/23 23:50:32;;;;;;;1.45;0.65;;;20.90;90.10;;;;;;10294783;28;20134;-66
2022/08/23 23:55:34;;;;;;;4.78;0.77;;;20.80;90.10;;;;;;10301724;28;20046;-66
